createdAt,value
2017-11-04T00:01:36.691Z,9.40
2017-11-04T00:04:04.995Z,9.40
2017-11-04T00:06:33.291Z,9.50
2017-11-04T00:09:03.638Z,9.50
2017-11-04T00:14:02.317Z,9.70
2017-11-04T00:16:31.039Z,9.70
2017-11-04T00:18:59.335Z,9.70
2017-11-04T00:21:27.694Z,9.80
2017-11-04T00:23:56.822Z,9.80
2017-11-04T00:26:25.886Z,9.90
2017-11-04T00:28:54.622Z,10.00
2017-11-04T00:31:23.210Z,10.00
2017-11-04T00:33:51.507Z,10.00
2017-11-04T00:36:19.838Z,10.00
2017-11-04T00:38:48.188Z,9.90
2017-11-04T00:41:17.258Z,9.90
2017-11-04T00:43:45.601Z,9.90
2017-11-04T00:46:14.707Z,10.00
2017-11-04T00:48:43.002Z,9.90
2017-11-04T00:51:11.338Z,9.90
2017-11-04T00:53:40.449Z,10.00
2017-11-04T00:56:09.143Z,10.00
2017-11-04T00:58:37.434Z,9.90
2017-11-04T01:01:05.871Z,9.90
2017-11-04T01:03:34.922Z,9.80
2017-11-04T01:06:03.218Z,9.80
2017-11-04T01:08:31.577Z,9.70
2017-11-04T01:10:59.866Z,9.80
2017-11-04T01:13:28.559Z,9.80
2017-11-04T01:15:56.927Z,9.80
2017-11-04T01:18:25.226Z,9.80
2017-11-04T01:20:53.519Z,9.70
2017-11-04T01:23:22.636Z,9.80
2017-11-04T01:25:51.696Z,9.80
2017-11-04T01:28:19.999Z,10.00
2017-11-04T01:30:48.350Z,10.00
2017-11-04T01:33:17.425Z,10.00
2017-11-04T01:35:45.782Z,10.00
2017-11-04T01:38:14.933Z,10.00
2017-11-04T01:40:43.467Z,10.10
2017-11-04T01:43:11.773Z,10.00
2017-11-04T01:45:40.152Z,10.20
2017-11-04T01:48:08.454Z,10.20
2017-11-04T01:50:36.754Z,10.10
2017-11-04T01:53:05.115Z,10.10
2017-11-04T01:55:34.655Z,10.20
2017-11-04T01:58:03.721Z,10.30
2017-11-04T02:00:32.104Z,10.30
2017-11-04T02:03:00.409Z,10.30
2017-11-04T02:05:29.122Z,10.30
2017-11-04T02:07:57.883Z,10.20
2017-11-04T02:10:26.578Z,10.20
2017-11-04T02:15:28.611Z,10.10
2017-11-04T02:17:56.908Z,10.10
2017-11-04T02:20:25.206Z,10.20
2017-11-04T02:22:53.577Z,10.20
2017-11-04T02:25:21.878Z,10.20
2017-11-04T02:27:50.173Z,10.20
2017-11-04T02:30:18.535Z,10.40
2017-11-04T02:32:46.835Z,10.30
2017-11-04T02:35:15.132Z,10.30
2017-11-04T02:37:43.513Z,10.30
2017-11-04T02:40:11.815Z,10.20
2017-11-04T02:42:40.120Z,10.20
2017-11-04T02:45:08.468Z,10.10
2017-11-04T02:47:37.898Z,10.10
2017-11-04T02:50:06.966Z,10.20
2017-11-04T02:52:36.356Z,10.20
2017-11-04T02:55:05.423Z,10.20
2017-11-04T02:57:34.482Z,10.30
2017-11-04T03:00:02.871Z,10.30
2017-11-04T03:02:31.175Z,10.40
2017-11-04T03:04:59.474Z,10.40
2017-11-04T03:07:27.843Z,10.40
2017-11-04T03:09:56.140Z,10.40
2017-11-04T03:12:24.446Z,10.40
2017-11-04T03:14:52.815Z,10.40
2017-11-04T03:17:21.873Z,10.30
2017-11-04T03:19:50.178Z,10.20
2017-11-04T03:22:18.523Z,10.20
2017-11-04T03:24:47.054Z,10.30
2017-11-04T03:27:16.139Z,10.30
2017-11-04T03:29:44.531Z,10.20
2017-11-04T03:32:12.883Z,10.20
2017-11-04T03:34:42.021Z,10.30
2017-11-04T03:37:10.415Z,10.30
2017-11-04T03:39:38.784Z,10.30
2017-11-04T03:42:07.438Z,10.30
2017-11-04T03:44:35.819Z,10.30
2017-11-04T03:49:34.411Z,10.40
2017-11-04T03:52:02.754Z,10.40
2017-11-04T03:54:31.050Z,10.40
2017-11-04T03:56:59.350Z,10.40
2017-11-04T03:59:27.710Z,10.30
2017-11-04T04:01:56.008Z,10.30
2017-11-04T04:04:24.339Z,10.30
2017-11-04T04:06:52.707Z,10.40
2017-11-04T04:09:21.010Z,10.40
2017-11-04T04:11:49.315Z,10.40
2017-11-04T04:14:18.121Z,10.50
2017-11-04T04:16:46.419Z,10.50
2017-11-04T04:19:14.718Z,10.50
2017-11-04T04:21:43.104Z,10.50
2017-11-04T04:24:12.171Z,10.40
2017-11-04T04:26:40.866Z,10.30
2017-11-04T04:29:09.212Z,10.30
2017-11-04T04:31:37.514Z,10.20
2017-11-04T04:34:05.803Z,10.20
2017-11-04T04:36:34.162Z,10.20
2017-11-04T04:39:03.225Z,10.20
2017-11-04T04:41:32.383Z,10.20
2017-11-04T04:44:01.511Z,10.20
2017-11-04T04:46:30.562Z,10.20
2017-11-04T04:48:58.859Z,10.20
2017-11-04T04:51:27.662Z,10.20
2017-11-04T04:53:56.223Z,10.10
2017-11-04T04:56:24.553Z,10.00
2017-11-04T04:58:54.031Z,10.00
2017-11-04T05:01:22.338Z,10.00
2017-11-04T05:03:50.631Z,10.00
2017-11-04T05:06:18.990Z,10.10
2017-11-04T05:08:47.282Z,10.20
2017-11-04T05:11:15.617Z,10.20
2017-11-04T05:13:44.751Z,10.20
2017-11-04T05:16:13.051Z,10.20
2017-11-04T05:18:41.352Z,10.30
2017-11-04T05:21:09.715Z,10.30
2017-11-04T05:23:39.207Z,10.30
2017-11-04T05:26:07.502Z,10.30
2017-11-04T05:28:35.862Z,10.30
2017-11-04T05:31:04.182Z,10.20
2017-11-04T05:33:32.482Z,10.30
2017-11-04T05:36:01.333Z,10.30
2017-11-04T05:38:29.631Z,10.40
2017-11-04T05:40:57.928Z,10.50
2017-11-04T05:43:26.348Z,10.40
2017-11-04T05:45:54.662Z,10.40
2017-11-04T05:48:22.999Z,10.30
2017-11-04T05:50:52.260Z,10.30
2017-11-04T05:53:20.560Z,10.20
2017-11-04T05:55:48.863Z,10.30
2017-11-04T05:58:17.246Z,10.40
2017-11-04T06:00:45.590Z,10.40
2017-11-04T06:03:13.890Z,10.40
2017-11-04T06:05:42.254Z,10.40
2017-11-04T06:10:40.086Z,10.50
2017-11-04T06:13:08.459Z,10.50
2017-11-04T06:15:36.770Z,10.50
2017-11-04T06:18:05.475Z,10.50
2017-11-04T06:20:34.654Z,10.50
2017-11-04T06:23:03.711Z,10.60
2017-11-04T06:25:32.014Z,10.80
2017-11-04T06:28:00.351Z,10.80
2017-11-04T06:30:28.651Z,10.80
2017-11-04T06:32:56.959Z,10.70
2017-11-04T06:35:25.312Z,10.70
2017-11-04T06:37:53.617Z,10.60
2017-11-04T06:40:21.903Z,10.70
2017-11-04T06:42:50.690Z,10.80
2017-11-04T06:45:18.999Z,10.80
2017-11-04T06:47:47.298Z,10.80
2017-11-04T06:50:16.460Z,10.80
2017-11-04T06:52:44.762Z,10.80
2017-11-04T06:55:13.060Z,10.70
2017-11-04T06:57:41.443Z,10.70
2017-11-04T07:00:09.741Z,10.80
2017-11-04T07:02:38.042Z,10.70
2017-11-04T07:05:06.417Z,10.70
2017-11-04T07:10:04.238Z,10.60
2017-11-04T07:12:34.115Z,10.60
2017-11-04T07:15:02.423Z,10.50
2017-11-04T07:17:31.114Z,10.60
2017-11-04T07:19:59.492Z,10.50
2017-11-04T07:22:28.559Z,10.60
2017-11-04T07:24:56.866Z,10.60
2017-11-04T07:27:25.277Z,10.60
2017-11-04T07:29:53.578Z,10.60
2017-11-04T07:32:21.875Z,10.80
2017-11-04T07:34:50.224Z,10.80
2017-11-04T07:37:19.307Z,10.70
2017-11-04T07:39:47.615Z,10.70
2017-11-04T07:42:16.058Z,10.70
2017-11-04T07:47:14.671Z,10.80
2017-11-04T07:49:43.794Z,10.80
2017-11-04T07:52:12.099Z,10.90
2017-11-04T07:54:40.402Z,10.90
2017-11-04T07:57:08.783Z,11.00
2017-11-04T07:59:37.066Z,11.10
2017-11-04T08:02:06.124Z,11.40
2017-11-04T08:04:35.988Z,11.40
2017-11-04T08:07:05.051Z,11.50
2017-11-04T08:09:34.487Z,11.50
2017-11-04T08:12:02.830Z,11.60
2017-11-04T08:14:31.890Z,11.50
2017-11-04T08:17:00.183Z,11.50
2017-11-04T08:19:28.959Z,11.60
2017-11-04T08:21:57.254Z,11.70
2017-11-04T08:24:25.542Z,11.90
2017-11-04T08:26:53.982Z,12.00
2017-11-04T08:29:23.414Z,12.20
2017-11-04T08:31:52.479Z,12.30
2017-11-04T08:34:20.838Z,12.30
2017-11-04T08:36:49.898Z,12.40
2017-11-04T08:39:18.202Z,12.40
2017-11-04T08:41:46.567Z,12.50
2017-11-04T08:44:15.639Z,12.60
2017-11-04T08:46:43.946Z,12.60
2017-11-04T08:49:12.304Z,12.60
2017-11-04T08:51:41.362Z,12.80
2017-11-04T08:54:09.667Z,12.90
2017-11-04T08:56:38.026Z,13.00
2017-11-04T08:59:06.324Z,13.00
2017-11-04T09:01:35.386Z,13.20
2017-11-04T09:04:04.885Z,13.20
2017-11-04T09:06:33.183Z,13.20
2017-11-04T09:09:01.483Z,13.30
2017-11-04T09:11:29.833Z,13.30
2017-11-04T09:13:58.150Z,13.40
2017-11-04T09:16:26.463Z,13.40
2017-11-04T09:18:56.347Z,13.50
2017-11-04T09:21:27.124Z,13.60
2017-11-04T09:23:55.439Z,13.80
2017-11-04T09:26:23.799Z,13.80
2017-11-04T09:28:52.091Z,13.90
2017-11-04T09:31:21.151Z,13.80
2017-11-04T09:33:49.502Z,13.80
2017-11-04T09:36:18.587Z,13.90
2017-11-04T09:38:46.884Z,13.90
2017-11-04T09:41:15.222Z,14.00
2017-11-04T09:43:44.287Z,14.00
2017-11-04T09:46:12.589Z,14.00
2017-11-04T09:48:40.948Z,14.00
2017-11-04T09:51:10.006Z,14.00
2017-11-04T09:53:39.374Z,14.10
2017-11-04T09:56:10.060Z,14.00
2017-11-04T09:58:39.154Z,14.00
2017-11-04T10:01:07.459Z,14.00
2017-11-04T10:03:35.805Z,13.80
2017-11-04T10:06:04.093Z,13.90
2017-11-04T10:08:33.151Z,13.90
2017-11-04T10:11:01.543Z,14.00
2017-11-04T10:13:29.830Z,14.00
2017-11-04T10:15:58.134Z,14.00
2017-11-04T10:18:26.504Z,14.10
2017-11-04T10:20:54.802Z,14.10
2017-11-04T10:23:23.097Z,14.20
2017-11-04T10:25:51.452Z,14.20
2017-11-04T10:28:19.747Z,14.10
2017-11-04T10:30:48.810Z,14.10
2017-11-04T10:33:17.182Z,13.90
2017-11-04T10:35:45.473Z,13.90
2017-11-04T10:38:13.766Z,13.90
2017-11-04T10:40:42.393Z,14.00
2017-11-04T10:43:11.455Z,14.00
2017-11-04T10:45:40.146Z,14.00
2017-11-04T10:48:08.516Z,14.10
2017-11-04T10:50:36.812Z,14.10
2017-11-04T10:53:05.502Z,14.10
2017-11-04T10:55:33.841Z,14.20
2017-11-04T10:58:02.134Z,14.20
2017-11-04T11:00:30.431Z,14.30
2017-11-04T11:02:59.118Z,14.30
2017-11-04T11:05:28.174Z,14.20
2017-11-04T11:07:56.467Z,14.30
2017-11-04T11:10:24.822Z,14.30
2017-11-04T11:12:53.138Z,14.50
2017-11-04T11:15:22.933Z,14.50
2017-11-04T11:17:51.311Z,14.70
2017-11-04T11:20:21.111Z,14.70
2017-11-04T11:22:49.800Z,14.90
2017-11-04T11:25:18.142Z,14.90
2017-11-04T11:27:47.382Z,15.00
2017-11-04T11:30:16.447Z,15.10
2017-11-04T11:32:44.802Z,15.20
2017-11-04T11:35:13.103Z,15.30
2017-11-04T11:37:41.790Z,15.30
2017-11-04T11:40:10.139Z,15.50
2017-11-04T11:42:39.611Z,15.60
2017-11-04T11:45:07.902Z,15.60
2017-11-04T11:47:36.404Z,15.70
2017-11-04T11:50:04.699Z,15.70
2017-11-04T11:52:32.990Z,15.80
2017-11-04T11:55:01.359Z,15.90
2017-11-04T11:57:30.790Z,15.90
2017-11-04T11:59:59.851Z,15.90
2017-11-04T12:02:28.211Z,15.90
2017-11-04T12:04:57.651Z,15.80
2017-11-04T12:07:26.342Z,15.80
2017-11-04T12:09:56.167Z,15.80
2017-11-04T12:12:24.457Z,15.90
2017-11-04T12:14:53.767Z,15.90
2017-11-04T12:17:23.382Z,15.90
2017-11-04T12:19:51.674Z,16.00
2017-11-04T12:22:19.967Z,16.00
2017-11-04T12:24:49.839Z,16.00
2017-11-04T12:27:18.134Z,16.10
2017-11-04T12:29:46.426Z,16.10
2017-11-04T12:32:14.788Z,16.00
2017-11-04T12:34:43.101Z,15.90
2017-11-04T12:37:11.392Z,15.90
2017-11-04T12:39:39.740Z,15.90
2017-11-04T12:42:09.170Z,15.90
2017-11-04T12:44:37.465Z,15.90
2017-11-04T12:49:39.981Z,16.20
2017-11-04T12:54:38.182Z,16.30
2017-11-04T12:57:06.586Z,16.40
2017-11-04T12:59:35.642Z,16.50
2017-11-04T13:02:03.935Z,16.50
2017-11-04T13:04:32.279Z,16.50
2017-11-04T13:09:30.081Z,16.40
2017-11-04T13:11:58.423Z,16.30
2017-11-04T13:14:26.718Z,16.30
2017-11-04T13:16:55.018Z,16.30
2017-11-04T13:21:52.884Z,16.20
2017-11-04T13:24:21.176Z,16.10
2017-11-04T13:26:50.286Z,16.10
2017-11-04T13:29:19.347Z,16.10
2017-11-04T13:31:47.643Z,16.20
2017-11-04T13:34:15.998Z,16.20
2017-11-04T13:36:45.059Z,16.10
2017-11-04T13:39:13.355Z,16.10
2017-11-04T13:41:41.727Z,16.10
2017-11-04T13:44:10.027Z,16.10
2017-11-04T13:49:08.659Z,16.20
2017-11-04T13:51:37.350Z,16.20
2017-11-04T13:54:06.043Z,16.20
2017-11-04T13:56:34.388Z,16.30
2017-11-04T13:59:02.693Z,16.40
2017-11-04T14:01:31.383Z,16.40
2017-11-04T14:04:01.282Z,16.30
2017-11-04T14:06:29.574Z,16.40
2017-11-04T14:08:57.876Z,16.40
2017-11-04T14:11:26.234Z,16.40
2017-11-04T14:13:55.424Z,16.40
2017-11-04T14:16:24.114Z,16.40
2017-11-04T14:18:53.227Z,16.40
2017-11-04T14:21:21.525Z,16.40
2017-11-04T14:23:50.578Z,16.50
2017-11-04T14:26:18.927Z,16.60
2017-11-04T14:28:47.625Z,16.50
2017-11-04T14:31:15.917Z,16.60
2017-11-04T14:33:44.250Z,16.60
2017-11-04T14:36:13.692Z,16.60
2017-11-04T14:38:42.751Z,16.70
2017-11-04T14:41:12.268Z,16.60
2017-11-04T14:43:40.559Z,16.70
2017-11-04T14:46:08.850Z,16.60
2017-11-04T14:48:38.371Z,16.60
2017-11-04T14:51:07.059Z,16.60
2017-11-04T14:53:35.351Z,16.60
2017-11-04T14:56:03.718Z,16.60
2017-11-04T14:58:32.014Z,16.60
2017-11-04T15:01:01.328Z,16.60
2017-11-04T15:03:30.421Z,16.60
2017-11-04T15:05:59.106Z,16.50
2017-11-04T15:08:27.400Z,16.50
2017-11-04T15:10:55.731Z,16.50
2017-11-04T15:13:24.018Z,16.40
2017-11-04T15:15:52.307Z,16.40
2017-11-04T15:18:20.655Z,16.20
2017-11-04T15:20:48.940Z,16.10
2017-11-04T15:23:18.736Z,16.10
2017-11-04T15:25:47.084Z,16.00
2017-11-04T15:28:16.509Z,16.00
2017-11-04T15:30:44.802Z,15.90
2017-11-04T15:33:13.185Z,15.90
2017-11-04T15:35:41.467Z,15.80
2017-11-04T15:38:09.742Z,15.90
2017-11-04T15:40:38.916Z,15.90
2017-11-04T15:43:07.955Z,15.90
2017-11-04T15:45:37.747Z,15.80
2017-11-04T15:48:07.253Z,15.80
2017-11-04T15:50:36.675Z,15.90
2017-11-04T15:53:05.343Z,15.90
2017-11-04T15:55:33.690Z,15.90
2017-11-04T15:58:03.479Z,15.90
2017-11-04T16:00:31.762Z,15.90
2017-11-04T16:03:00.131Z,16.00
2017-11-04T16:05:29.925Z,16.00
2017-11-04T16:07:58.207Z,16.00
2017-11-04T16:10:26.541Z,16.10
2017-11-04T16:12:55.958Z,16.10
2017-11-04T16:15:24.241Z,16.10
2017-11-04T16:17:52.590Z,16.10
2017-11-04T16:20:21.639Z,16.00
2017-11-04T16:22:50.683Z,16.00
2017-11-04T16:25:19.052Z,16.00
2017-11-04T16:27:48.840Z,15.90
2017-11-04T16:30:17.110Z,15.90
2017-11-04T16:32:45.482Z,15.90
2017-11-04T16:35:13.771Z,15.90
2017-11-04T16:37:42.094Z,15.90
2017-11-04T16:42:39.952Z,15.80
2017-11-04T16:45:09.003Z,15.80
2017-11-04T16:47:38.110Z,15.90
2017-11-04T16:50:08.087Z,15.80
2017-11-04T16:52:36.377Z,15.80
2017-11-04T16:55:04.758Z,15.80
2017-11-04T16:57:33.044Z,15.80
2017-11-04T17:00:02.460Z,15.80
2017-11-04T17:05:00.721Z,15.90
2017-11-04T17:07:29.762Z,15.90
2017-11-04T17:09:58.855Z,15.90
2017-11-04T17:12:27.131Z,15.90
2017-11-04T17:14:55.416Z,15.90
2017-11-04T17:17:23.755Z,15.90
2017-11-04T17:19:52.039Z,15.90
2017-11-04T17:22:20.329Z,15.90
2017-11-04T17:24:49.427Z,15.90
2017-11-04T17:27:18.474Z,15.90
2017-11-04T17:29:46.760Z,16.00
2017-11-04T17:32:15.902Z,16.00
2017-11-04T17:34:44.631Z,16.00
2017-11-04T17:37:12.962Z,15.90
2017-11-04T17:39:41.283Z,16.00
2017-11-04T17:42:10.401Z,16.00
2017-11-04T17:44:40.188Z,16.00
2017-11-04T17:47:09.660Z,16.00
2017-11-04T17:49:38.790Z,16.00
2017-11-04T17:52:07.073Z,16.00
2017-11-04T17:54:38.481Z,15.90
2017-11-04T17:57:06.762Z,15.90
2017-11-04T17:59:35.048Z,15.80
2017-11-04T18:04:33.290Z,15.80
2017-11-04T18:07:01.621Z,15.80
2017-11-04T18:09:30.762Z,15.80
2017-11-04T18:11:59.798Z,15.80
2017-11-04T18:14:28.131Z,15.80
2017-11-04T18:16:56.493Z,15.80
2017-11-04T18:19:24.778Z,15.70
2017-11-04T18:21:53.835Z,15.70
2017-11-04T18:26:52.146Z,15.50
2017-11-04T18:29:21.565Z,15.40
2017-11-04T18:31:50.315Z,15.40
2017-11-04T18:34:18.606Z,15.30
2017-11-04T18:39:17.243Z,15.20
2017-11-04T18:41:45.524Z,15.20
2017-11-04T18:44:14.996Z,15.10
2017-11-04T18:46:43.377Z,15.20
2017-11-04T18:49:13.163Z,15.10
2017-11-04T18:51:41.447Z,15.10
2017-11-04T18:54:09.818Z,15.10
2017-11-04T18:56:38.160Z,15.10
2017-11-04T18:59:06.447Z,15.10
2017-11-04T19:01:34.794Z,15.20
2017-11-04T19:04:03.878Z,15.20
2017-11-04T19:06:32.926Z,15.20
2017-11-04T19:09:01.799Z,15.20
2017-11-04T19:11:30.103Z,15.20
2017-11-04T19:13:58.383Z,15.30
2017-11-04T19:16:26.822Z,15.30
2017-11-04T19:18:55.158Z,15.30
2017-11-04T19:21:23.445Z,15.30
2017-11-04T19:23:52.928Z,15.30
2017-11-04T19:26:22.017Z,15.30
2017-11-04T19:28:51.074Z,15.30
2017-11-04T19:31:20.187Z,15.40
2017-11-04T19:33:50.030Z,15.40
2017-11-04T19:36:18.316Z,15.50
2017-11-04T19:38:46.640Z,15.50
2017-11-04T19:41:16.066Z,15.50
2017-11-04T19:43:44.359Z,15.50
2017-11-04T19:46:12.706Z,15.50
2017-11-04T19:48:41.035Z,15.50
2017-11-04T19:51:09.350Z,15.50
2017-11-04T19:56:08.244Z,15.50
2017-11-04T19:58:36.534Z,15.60
2017-11-04T20:01:04.934Z,15.50
2017-11-04T20:03:34.729Z,15.60
2017-11-04T20:06:04.514Z,15.60
2017-11-04T20:08:32.893Z,15.60
2017-11-04T20:13:31.733Z,15.70
2017-11-04T20:16:00.058Z,15.70
2017-11-04T20:20:57.938Z,15.80
2017-11-04T20:23:26.333Z,15.80
2017-11-04T20:25:54.662Z,15.80
2017-11-04T20:30:57.553Z,15.70
2017-11-04T20:33:25.831Z,15.70
2017-11-04T20:35:54.168Z,15.70
2017-11-04T20:40:52.134Z,15.50
2017-11-04T20:43:20.475Z,15.40
2017-11-04T20:45:50.323Z,15.50
2017-11-04T20:48:19.060Z,15.40
2017-11-04T20:50:47.341Z,15.40
2017-11-04T20:53:15.686Z,15.30
2017-11-04T20:55:45.167Z,15.30
2017-11-04T20:58:13.458Z,15.30
2017-11-04T21:00:42.254Z,15.20
2017-11-04T21:03:12.060Z,15.20
2017-11-04T21:05:40.366Z,15.20
2017-11-04T21:08:09.543Z,15.20
2017-11-04T21:10:38.596Z,15.20
2017-11-04T21:13:07.293Z,15.10
2017-11-04T21:15:35.706Z,15.10
2017-11-04T21:18:04.054Z,15.10
2017-11-04T21:20:32.405Z,15.10
2017-11-04T21:23:00.786Z,15.10
2017-11-04T21:25:30.621Z,15.20
2017-11-04T21:28:00.455Z,15.20
2017-11-04T21:30:29.515Z,15.20
2017-11-04T21:32:58.617Z,15.20
2017-11-04T21:35:26.966Z,15.10
2017-11-04T21:37:55.253Z,15.10
2017-11-04T21:40:23.585Z,15.20
2017-11-04T21:42:52.073Z,15.20
2017-11-04T21:45:21.127Z,15.10
2017-11-04T21:47:50.551Z,15.20
2017-11-04T21:50:19.330Z,15.20
2017-11-04T21:52:48.438Z,15.20
2017-11-04T21:55:16.714Z,15.20
2017-11-04T21:57:45.811Z,15.30
2017-11-04T22:00:14.165Z,15.30
2017-11-04T22:02:42.493Z,15.30
2017-11-04T22:05:11.976Z,15.30
2017-11-04T22:07:40.272Z,15.30
2017-11-04T22:10:08.554Z,15.20
2017-11-04T22:12:37.127Z,15.20
2017-11-04T22:15:05.654Z,15.20
2017-11-04T22:20:05.102Z,15.20
2017-11-04T22:22:33.410Z,15.20
2017-11-04T22:25:01.702Z,15.20
2017-11-04T22:27:38.950Z,15.30
2017-11-04T22:32:37.195Z,15.30
2017-11-04T22:35:05.928Z,15.40
2017-11-04T22:40:04.918Z,15.40
2017-11-04T22:42:33.880Z,15.40
2017-11-04T22:45:02.167Z,15.50
2017-11-04T22:47:30.457Z,15.50
2017-11-04T22:49:59.985Z,15.50
2017-11-04T22:52:34.824Z,15.50
2017-11-04T22:55:03.170Z,15.50
2017-11-04T22:57:31.511Z,15.50
2017-11-04T23:00:00.595Z,15.40
2017-11-04T23:02:28.996Z,15.30
2017-11-04T23:04:57.285Z,15.30
2017-11-04T23:07:25.570Z,15.20
2017-11-04T23:12:23.847Z,15.10
2017-11-04T23:14:52.122Z,15.10
2017-11-04T23:17:20.507Z,15.10
2017-11-04T23:19:49.234Z,15.10
2017-11-04T23:22:17.507Z,15.10
2017-11-04T23:27:16.114Z,15.10
2017-11-04T23:29:44.394Z,15.10
2017-11-04T23:32:12.735Z,15.00
2017-11-04T23:34:42.156Z,14.90
2017-11-04T23:37:10.443Z,14.90
2017-11-04T23:39:38.941Z,14.80
2017-11-04T23:42:07.231Z,14.80
2017-11-04T23:44:36.657Z,14.80
2017-11-04T23:47:05.786Z,14.80
2017-11-04T23:49:35.223Z,14.60
2017-11-04T23:52:04.287Z,14.60
2017-11-04T23:54:33.791Z,14.50
2017-11-04T23:57:02.079Z,14.50
2017-11-04T23:59:30.761Z,14.50
